Time;durP1;ratioP1;P1;durP2;ratioP2;P2;SDS_P1;SDS_P2;PMS_P1;PMS_P2;Temp;Humidity;BMP_temperature;BMP_pressure;BME280_temperature;BME280_humidity;BME280_pressure;Samples;Min_cycle;Max_cycle;Signal;HPM_P1;HPM_P2
2023/11/13 00:00:14;;;;;;;7.15;4.93;;;;;;;6.99;100.00;100717.31;5098323;28;20020;-69
2023/11/13 00:02:40;;;;;;;6.22;4.65;;;;;;;7.05;100.00;100727.28;5098719;28;20035;-68
2023/11/13 00:05:07;;;;;;;5.07;4.57;;;;;;;7.04;100.00;100728.28;5096958;28;20036;-68
2023/11/13 00:07:32;;;;;;;5.03;4.50;;;;;;;6.96;100.00;100716.84;5098023;28;20035;-68
2023/11/13 00:09:57;;;;;;;6.10;4.45;;;;;;;7.06;100.00;100723.59;5095846;28;20032;-68
2023/11/13 00:12:23;;;;;;;5.32;4.32;;;;;;;6.95;100.00;100731.19;5096658;28;20030;-68
2023/11/13 00:14:49;;;;;;;4.65;4.15;;;;;;;6.85;100.00;100727.91;5096462;28;20028;-68
2023/11/13 00:17:14;;;;;;;4.80;4.05;;;;;;;6.94;100.00;100733.03;5095719;28;20046;-68
2023/11/13 00:19:40;;;;;;;4.28;3.78;;;;;;;6.89;100.00;100727.41;5096882;28;20080;-69
2023/11/13 00:22:05;;;;;;;5.28;4.35;;;;;;;6.87;100.00;100724.06;5077392;28;20566;-68
2023/11/13 00:24:31;;;;;;;4.65;3.92;;;;;;;6.62;100.00;100710.00;5095215;28;20040;-68
2023/11/13 00:26:57;;;;;;;4.55;3.90;;;;;;;6.65;100.00;100712.31;5096437;28;20077;-68
2023/11/13 00:29:22;;;;;;;5.43;4.07;;;;;;;6.41;100.00;100697.25;5094799;28;20024;-68
2023/11/13 00:31:47;;;;;;;6.53;4.10;;;;;;;6.86;100.00;100719.72;5096391;28;20032;-68
2023/11/13 00:34:13;;;;;;;5.10;4.38;;;;;;;6.81;100.00;100725.59;5099659;28;20046;-68
2023/11/13 00:36:38;;;;;;;5.03;4.20;;;;;;;6.68;100.00;100732.53;5097028;28;20483;-68
2023/11/13 00:39:04;;;;;;;6.03;4.88;;;;;;;6.80;100.00;100729.28;5077192;28;20383;-68
2023/11/13 00:41:33;;;;;;;6.97;4.35;;;;;;;6.64;100.00;100708.00;5093956;28;20049;-68
2023/11/13 00:44:01;;;;;;;4.82;4.25;;;;;;;6.52;100.00;100710.25;5064248;28;20093;-68
2023/11/13 00:46:27;;;;;;;7.35;4.28;;;;;;;6.46;100.00;100718.94;5096536;28;20433;-68
2023/11/13 00:48:53;;;;;;;4.65;3.85;;;;;;;6.29;100.00;100720.88;5098000;28;20031;-68
2023/11/13 00:51:18;;;;;;;4.10;3.60;;;;;;;6.31;100.00;100724.19;5096322;28;20123;-68
2023/11/13 00:53:43;;;;;;;4.32;3.92;;;;;;;6.56;100.00;100726.75;5099097;28;20054;-68
2023/11/13 00:56:09;;;;;;;4.00;3.42;;;;;;;6.68;100.00;100717.31;5079643;28;20062;-68
2023/11/13 00:58:36;;;;;;;3.92;3.38;;;;;;;6.68;100.00;100717.31;5096817;28;20048;-68
2023/11/13 01:01:10;;;;;;;3.90;3.42;;;;;;;6.73;100.00;100720.31;5080024;28;20035;-68
2023/11/13 01:03:35;;;;;;;4.32;3.35;;;;;;;6.70;100.00;100722.50;5097716;28;20101;-68
2023/11/13 01:06:02;;;;;;;4.57;3.65;;;;;;;6.47;100.00;100703.75;5096883;28;20040;-68
2023/11/13 01:08:28;;;;;;;5.47;3.58;;;;;;;6.61;100.00;100718.19;5096507;28;20407;-69
2023/11/13 01:10:53;;;;;;;3.85;3.40;;;;;;;6.44;100.00;100698.75;5093754;28;20070;-68
2023/11/13 01:13:22;;;;;;;4.38;3.67;;;;;;;6.39;100.00;100723.34;5097668;28;20107;-68
2023/11/13 01:15:53;;;;;;;4.75;3.63;;;;;;;6.18;100.00;100707.03;5097411;28;20473;-68
2023/11/13 01:18:20;;;;;;;3.95;3.30;;;;;;;6.40;100.00;100721.50;5098554;28;20032;-68
2023/11/13 01:20:46;;;;;;;4.47;3.28;;;;;;;6.53;100.00;100727.94;5102677;28;20307;-68
2023/11/13 01:23:12;;;;;;;4.20;3.50;;;;;;;6.45;100.00;100729.81;5101451;28;20070;-68
2023/11/13 01:25:38;;;;;;;3.40;3.10;;;;;;;6.51;100.00;100727.25;5102976;28;20020;-69
2023/11/13 01:28:04;;;;;;;5.10;3.70;;;;;;;6.13;100.00;100694.22;5102223;28;20050;-68
2023/11/13 01:30:30;;;;;;;4.20;3.33;;;;;;;6.33;100.00;100721.34;5103698;28;20028;-68
2023/11/13 01:32:55;;;;;;;3.80;3.20;;;;;;;6.21;100.00;100723.56;5101892;28;20062;-69
2023/11/13 01:35:21;;;;;;;3.35;2.83;;;;;;;6.34;100.00;100721.16;5101404;28;20032;-68
2023/11/13 01:37:46;;;;;;;4.72;3.05;;;;;;;6.28;100.00;100719.19;5085290;28;20028;-68
2023/11/13 01:40:12;;;;;;;4.43;2.92;;;;;;;6.25;100.00;100710.69;5103358;28;20028;-68
2023/11/13 01:42:38;;;;;;;3.95;2.78;;;;;;;6.34;100.00;100725.69;5104066;28;20538;-69
2023/11/13 01:45:05;;;;;;;4.65;2.90;;;;;;;6.57;100.00;100723.06;5103702;28;20127;-69
2023/11/13 01:47:30;;;;;;;5.32;3.28;;;;;;;6.17;100.00;100722.25;5104585;28;20032;-69
2023/11/13 01:49:57;;;;;;;5.10;3.13;;;;;;;6.43;100.00;100721.97;5106697;28;20028;-68
2023/11/13 01:52:23;;;;;;;7.82;3.60;;;;;;;6.39;100.00;100719.81;5101668;28;20035;-69
2023/11/13 01:54:49;;;;;;;3.92;2.97;;;;;;;6.23;100.00;100718.88;5100916;28;20051;-68
2023/11/13 01:57:14;;;;;;;5.30;3.63;;;;;;;6.29;100.00;100707.50;5099278;28;20028;-69
2023/11/13 01:59:42;;;;;;;4.95;3.80;;;;;;;6.37;100.00;100717.31;5100478;28;20032;-69
2023/11/13 02:02:09;;;;;;;4.35;3.47;;;;;;;6.37;100.00;100714.66;5101288;28;20035;-69
2023/11/13 02:04:34;;;;;;;5.28;3.28;;;;;;;6.22;100.00;100714.53;5101283;28;20027;-69
2023/11/13 02:07:00;;;;;;;5.72;3.50;;;;;;;6.05;100.00;100716.41;5099810;28;20119;-69
2023/11/13 02:09:26;;;;;;;4.25;3.35;;;;;;;6.13;100.00;100709.41;5101067;28;20020;-69
2023/11/13 02:11:52;;;;;;;6.10;3.40;;;;;;;6.22;100.00;100693.16;5098897;28;20450;-69
2023/11/13 02:14:18;;;;;;;6.13;3.75;;;;;;;6.26;100.00;100709.69;5100549;28;20024;-69
2023/11/13 02:16:44;;;;;;;5.38;3.92;;;;;;;6.11;100.00;100714.91;5102598;28;20501;-69
2023/11/13 02:19:14;;;;;;;4.72;4.07;;;;;;;6.32;100.00;100719.66;5101713;28;20032;-69
2023/11/13 02:21:40;;;;;;;6.97;3.70;;;;;;;6.46;100.00;100721.63;5102561;28;20135;-69
2023/11/13 02:24:07;;;;;;;4.28;3.38;;;;;;;6.28;100.00;100696.97;5100423;28;20103;-69
2023/11/13 02:26:32;;;;;;;5.25;3.30;;;;;;;6.33;100.00;100722.19;5100628;28;20028;-69
2023/11/13 02:28:58;;;;;;;4.22;3.65;;;;;;;6.41;100.00;100718.63;5101872;28;20042;-69
2023/11/13 02:31:24;;;;;;;6.53;3.65;;;;;;;6.51;100.00;100711.22;5101134;28;20390;-69
2023/11/13 02:33:49;;;;;;;4.25;3.47;;;;;;;6.35;100.00;100708.63;5102944;28;20024;-69
2023/11/13 02:36:14;;;;;;;5.25;3.78;;;;;;;6.09;100.00;100708.88;5100925;28;20712;-69
2023/11/13 02:38:40;;;;;;;4.07;3.38;;;;;;;5.98;100.00;100704.75;5103027;28;20026;-69
2023/11/13 02:41:07;;;;;;;3.72;3.33;;;;;;;6.19;100.00;100698.88;5100782;28;20118;-69
2023/11/13 02:43:32;;;;;;;4.05;3.08;;;;;;;6.06;100.00;100680.72;5101912;28;20035;-69
2023/11/13 02:45:58;;;;;;;5.20;3.33;;;;;;;6.06;100.00;100682.53;5100525;28;20020;-69
2023/11/13 02:48:23;;;;;;;3.90;3.50;;;;;;;6.06;100.00;100702.06;5103586;28;20036;-69
2023/11/13 02:50:49;;;;;;;3.55;3.15;;;;;;;6.18;100.00;100701.69;5104182;28;20024;-68
2023/11/13 02:53:14;;;;;;;4.00;3.13;;;;;;;6.34;100.00;100706.97;5098712;28;20055;-69
2023/11/13 02:55:40;;;;;;;3.60;3.20;;;;;;;6.25;100.00;100713.34;5100962;28;20078;-68
2023/11/13 02:58:05;;;;;;;4.45;3.28;;;;;;;6.34;100.00;100702.44;5100023;28;20506;-69
2023/11/13 03:00:33;;;;;;;3.70;3.00;;;;;;;6.35;100.00;100704.09;5101774;28;20054;-68
2023/11/13 03:02:58;;;;;;;5.35;2.53;;;;;;;6.19;100.00;100714.91;5084258;28;20036;-69
2023/11/13 03:05:24;;;;;;;4.13;2.67;;;;;;;6.24;100.00;100711.69;5100764;28;20030;-68
2023/11/13 03:07:50;;;;;;;3.50;2.65;;;;;;;6.13;100.00;100712.06;5099806;28;20020;-69
2023/11/13 03:10:16;;;;;;;2.65;2.40;;;;;;;6.30;100.00;100711.84;5101271;28;20035;-69
2023/11/13 03:12:41;;;;;;;3.28;2.63;;;;;;;6.48;100.00;100708.06;5099309;28;20058;-69
2023/11/13 03:15:09;;;;;;;3.20;2.55;;;;;;;6.38;100.00;100702.94;5099163;28;20249;-68
2023/11/13 03:17:34;;;;;;;2.47;2.20;;;;;;;6.08;100.00;100694.72;5098793;28;20032;-69
2023/11/13 03:20:02;;;;;;;2.13;1.92;;;;;;;5.64;100.00;100689.78;5098777;28;20032;-68
2023/11/13 03:22:27;;;;;;;2.17;1.98;;;;;;;5.76;100.00;100705.44;5098602;28;20039;-69
2023/11/13 03:24:53;;;;;;;2.00;1.80;;;;;;;5.80;100.00;100707.63;5097239;28;20114;-69
2023/11/13 03:27:18;;;;;;;2.33;1.80;;;;;;;6.01;100.00;100717.78;5097650;28;20028;-69
2023/11/13 03:29:44;;;;;;;1.80;1.70;;;;;;;5.78;100.00;100720.31;5098818;28;20040;-68
2023/11/13 03:32:09;;;;;;;2.08;1.88;;;;;;;5.99;100.00;100711.75;5095777;28;20031;-68
2023/11/13 03:34:35;;;;;;;2.35;1.95;;;;;;;5.69;100.00;100713.31;5080910;28;20035;-69
2023/11/13 03:37:00;;;;;;;2.88;2.20;;;;;;;5.51;100.00;100721.50;5099900;28;20034;-69
2023/11/13 03:39:26;;;;;;;2.58;2.38;;;;;;;5.68;100.00;100721.50;5099381;28;20032;-68
2023/11/13 03:41:51;;;;;;;2.28;2.08;;;;;;;6.19;100.00;100720.25;5097317;28;20024;-69
2023/11/13 03:44:17;;;;;;;3.30;2.05;;;;;;;6.24;100.00;100690.31;5081106;28;20057;-69
2023/11/13 03:46:43;;;;;;;2.47;2.10;;;;;;;6.46;100.00;100718.94;5096332;28;20054;-69
2023/11/13 03:49:09;;;;;;;3.85;2.20;;;;;;;6.45;100.00;100719.94;5100311;28;20028;-69
2023/11/13 03:51:34;;;;;;;2.10;1.90;;;;;;;6.51;100.00;100724.59;5081857;28;20061;-68
2023/11/13 03:54:00;;;;;;;3.40;2.10;;;;;;;6.51;100.00;100718.41;5099675;28;20024;-68
2023/11/13 03:56:26;;;;;;;4.78;2.10;;;;;;;6.37;100.00;100703.13;5104006;28;20119;-69
2023/11/13 03:58:52;;;;;;;2.53;1.90;;;;;;;6.41;100.00;100725.81;5105746;28;20044;-69
2023/11/13 04:01:19;;;;;;;2.30;2.10;;;;;;;6.55;100.00;100725.91;5101253;28;20039;-69
2023/11/13 04:03:45;;;;;;;2.40;2.17;;;;;;;6.07;100.00;100719.75;5099733;28;20031;-69
2023/11/13 04:06:11;;;;;;;2.42;2.22;;;;;;;6.37;100.00;100727.19;5099805;28;20051;-69
2023/11/13 04:08:36;;;;;;;2.30;2.10;;;;;;;6.44;100.00;100723.63;5100644;28;20375;-69
2023/11/13 04:11:05;;;;;;;3.08;2.20;;;;;;;6.33;100.00;100729.38;5099192;28;20390;-69
2023/11/13 04:13:36;;;;;;;2.67;2.47;;;;;;;5.97;100.00;100703.09;5098658;28;20035;-69
2023/11/13 04:16:03;;;;;;;2.72;2.42;;;;;;;6.06;100.00;100712.75;5097924;28;20036;-69
2023/11/13 04:18:29;;;;;;;3.15;2.25;;;;;;;5.73;100.00;100713.78;5098877;28;20032;-68
2023/11/13 04:20:58;;;;;;;2.85;2.63;;;;;;;6.04;100.00;100706.75;5081006;28;20030;-69
2023/11/13 04:23:24;;;;;;;3.00;2.70;;;;;;;5.85;100.00;100691.91;5099837;28;20456;-69
2023/11/13 04:25:50;;;;;;;2.80;2.60;;;;;;;6.03;100.00;100680.22;5082034;28;20052;-69
2023/11/13 04:28:18;;;;;;;3.20;2.90;;;;;;;6.39;100.00;100706.44;5098800;28;20032;-69
2023/11/13 04:30:43;;;;;;;3.10;2.80;;;;;;;6.47;100.00;100715.25;5097837;28;20394;-68
2023/11/13 04:33:09;;;;;;;2.55;2.35;;;;;;;6.35;100.00;100690.75;5099672;28;20034;-69
2023/11/13 04:35:34;;;;;;;2.30;2.10;;;;;;;6.47;100.00;100701.91;5098284;28;20027;-69
2023/11/13 04:38:00;;;;;;;2.85;2.58;;;;;;;6.58;100.00;100725.56;5079879;28;20525;-68
2023/11/13 04:40:26;;;;;;;4.95;2.90;;;;;;;6.64;100.00;100718.69;5094612;28;20032;-69
2023/11/13 04:42:52;;;;;;;3.47;3.17;;;;;;;6.46;100.00;100705.59;5080414;28;20039;-69
2023/11/13 04:45:17;;;;;;;4.88;3.20;;;;;;;6.54;100.00;100724.25;5097895;28;20020;-68
2023/11/13 04:47:43;;;;;;;4.18;2.90;;;;;;;6.30;100.00;100721.69;5098283;28;20088;-69
2023/11/13 04:50:08;;;;;;;4.35;2.80;;;;;;;6.22;100.00;100719.03;5094752;28;20455;-69
2023/11/13 04:52:34;;;;;;;3.42;3.13;;;;;;;6.28;100.00;100718.34;5095281;28;20028;-68
2023/11/13 04:54:59;;;;;;;3.50;3.00;;;;;;;6.16;100.00;100701.03;5097665;28;20039;-69
2023/11/13 04:57:24;;;;;;;4.03;2.83;;;;;;;6.14;100.00;100722.56;5095166;28;20024;-69
2023/11/13 04:59:50;;;;;;;3.25;2.85;;;;;;;5.74;100.00;100689.59;5096320;28;20024;-68
2023/11/13 05:02:16;;;;;;;3.80;2.60;;;;;;;6.03;100.00;100726.47;5097742;28;20036;-69
2023/11/13 05:04:45;;;;;;;2.55;2.20;;;;;;;6.08;100.00;100693.88;5093341;28;20039;-69
2023/11/13 05:07:11;;;;;;;2.05;1.85;;;;;;;6.15;100.00;100718.88;5094427;28;20024;-69
2023/11/13 05:09:36;;;;;;;2.13;1.70;;;;;;;6.16;100.00;100715.25;5096535;28;20028;-69
2023/11/13 05:12:01;;;;;;;3.22;1.83;;;;;;;6.22;100.00;100717.19;5080537;28;20059;-68
2023/11/13 05:14:27;;;;;;;1.48;1.38;;;;;;;6.17;100.00;100710.72;5098289;28;20052;-68
2023/11/13 05:16:56;;;;;;;1.83;1.52;;;;;;;5.94;100.00;100716.78;5098918;28;20025;-69
2023/11/13 05:19:22;;;;;;;2.22;1.70;;;;;;;5.98;100.00;100717.28;5096797;28;20051;-69
2023/11/13 05:21:47;;;;;;;1.92;1.73;;;;;;;6.13;100.00;100704.91;5099881;28;20036;-67
2023/11/13 05:24:13;;;;;;;2.80;1.80;;;;;;;6.10;100.00;100716.75;5099895;28;20028;-67
2023/11/13 05:26:38;;;;;;;2.10;1.20;;;;;;;5.78;100.00;100711.47;5098081;28;20020;-67
2023/11/13 05:29:04;;;;;;;1.30;1.10;;;;;;;5.61;100.00;100714.16;5098491;28;20032;-68
2023/11/13 05:31:29;;;;;;;1.30;1.10;;;;;;;5.34;100.00;100709.19;5096870;28;20062;-68
2023/11/13 05:33:55;;;;;;;1.90;1.45;;;;;;;5.37;100.00;100701.69;5097101;28;20043;-69
2023/11/13 05:36:20;;;;;;;4.50;2.10;;;;;;;5.15;100.00;100699.66;5100288;28;20028;-68
2023/11/13 05:38:46;;;;;;;2.15;1.92;;;;;;;5.36;100.00;100686.69;5107801;28;20028;-68
2023/11/13 05:41:11;;;;;;;2.97;2.08;;;;;;;5.30;100.00;100707.84;5108916;28;20100;-67
2023/11/13 05:43:37;;;;;;;2.55;1.95;;;;;;;5.61;100.00;100708.00;5108883;28;20462;-66
2023/11/13 05:46:02;;;;;;;1.98;1.77;;;;;;;5.63;100.00;100711.34;5097782;28;20024;-66
2023/11/13 05:48:28;;;;;;;2.17;1.77;;;;;;;5.23;100.00;100713.03;5096739;28;20036;-66
2023/11/13 05:50:53;;;;;;;2.72;1.73;;;;;;;5.51;100.00;100712.69;5096741;28;20044;-66
2023/11/13 05:53:19;;;;;;;2.15;1.50;;;;;;;5.27;100.00;100710.84;5097547;28;20046;-66
2023/11/13 05:55:45;;;;;;;2.10;1.38;;;;;;;5.19;100.00;100701.81;5098118;28;20079;-66
2023/11/13 05:58:11;;;;;;;2.25;1.45;;;;;;;5.54;100.00;100712.34;5093883;28;20040;-66
2023/11/13 06:00:36;;;;;;;2.45;1.50;;;;;;;5.67;100.00;100717.16;5095527;28;20028;-66
2023/11/13 06:03:02;;;;;;;3.70;1.38;;;;;;;5.65;100.00;100691.44;5079955;28;20110;-66
2023/11/13 06:05:28;;;;;;;2.40;1.58;;;;;;;5.76;100.00;100698.28;5099418;28;20111;-66
2023/11/13 06:07:54;;;;;;;2.30;1.60;;;;;;;5.75;100.00;100714.47;5103812;28;20024;-66
2023/11/13 06:10:20;;;;;;;1.55;1.45;;;;;;;5.86;100.00;100711.44;5102478;28;20027;-67
2023/11/13 06:12:45;;;;;;;2.30;1.67;;;;;;;5.88;100.00;100720.94;5102085;28;20039;-66
2023/11/13 06:15:13;;;;;;;1.63;1.40;;;;;;;5.96;100.00;100712.13;5101904;28;20032;-67
2023/11/13 06:17:42;;;;;;;2.50;1.70;;;;;;;6.00;100.00;100708.09;5100074;28;20028;-66
2023/11/13 06:20:09;;;;;;;5.18;1.80;;;;;;;6.09;100.00;100712.41;5099438;28;20028;-66
2023/11/13 06:22:35;;;;;;;4.28;2.10;;;;;;;6.09;100.00;100707.06;5116666;28;20028;-66
2023/11/13 06:25:01;;;;;;;4.03;1.85;;;;;;;6.08;100.00;100709.91;5101729;28;20091;-66
2023/11/13 06:27:26;;;;;;;3.42;1.80;;;;;;;5.91;100.00;100703.75;5096411;28;20531;-66
2023/11/13 06:29:51;;;;;;;3.20;2.00;;;;;;;6.03;100.00;100709.59;5095750;28;20024;-67
2023/11/13 06:32:20;;;;;;;4.50;2.47;;;;;;;5.70;100.00;100706.16;5100713;28;20558;-67
2023/11/13 06:34:46;;;;;;;6.38;2.90;;;;;;;5.73;100.00;100711.13;5087600;28;20110;-66
2023/11/13 06:37:11;;;;;;;7.28;3.05;;;;;;;5.79;100.00;100713.13;5103937;28;20150;-67
2023/11/13 06:39:39;;;;;;;5.53;2.90;;;;;;;5.83;100.00;100712.63;5101090;28;20108;-67
2023/11/13 06:42:07;;;;;;;5.40;2.53;;;;;;;5.83;100.00;100711.78;5102156;28;20036;-67
2023/11/13 06:44:33;;;;;;;5.60;2.60;;;;;;;5.58;100.00;100700.31;5100898;28;20028;-67
2023/11/13 06:46:59;;;;;;;3.97;2.45;;;;;;;5.86;100.00;100708.75;5101347;28;20032;-67
2023/11/13 06:49:25;;;;;;;2.85;2.28;;;;;;;5.59;100.00;100702.81;5102884;28;20024;-67
2023/11/13 06:51:51;;;;;;;2.90;2.33;;;;;;;5.69;100.00;100701.78;5103641;28;20024;-68
2023/11/13 06:54:16;;;;;;;2.72;1.90;;;;;;;5.51;100.00;100710.00;5101648;28;20054;-67
2023/11/13 06:56:42;;;;;;;3.90;2.03;;;;;;;5.20;100.00;100702.69;5100613;28;20047;-67
2023/11/13 06:59:07;;;;;;;2.78;2.10;;;;;;;5.24;100.00;100706.69;5101703;28;20059;-67
2023/11/13 07:01:40;;;;;;;4.25;2.65;;;;;;;5.10;100.00;100702.84;5100217;28;20024;-67
2023/11/13 07:04:09;;;;;;;3.13;2.53;;;;;;;5.44;100.00;100717.84;5100377;28;20028;-67
2023/11/13 07:06:36;;;;;;;5.97;2.63;;;;;;;5.67;100.00;100719.84;5101729;28;20490;-67
2023/11/13 07:09:02;;;;;;;4.28;2.50;;;;;;;5.33;100.00;100711.03;5100363;28;20015;-67
2023/11/13 07:11:28;;;;;;;4.53;2.58;;;;;;;5.27;100.00;100713.53;5102110;28;20036;-67
2023/11/13 07:13:53;;;;;;;4.88;2.78;;;;;;;5.11;100.00;100685.84;5101713;28;20073;-67
2023/11/13 07:16:20;;;;;;;2.95;2.10;;;;;;;5.14;100.00;100709.50;5101590;28;20397;-67
2023/11/13 07:18:46;;;;;;;3.28;2.30;;;;;;;5.20;100.00;100702.69;5084643;28;20028;-67
2023/11/13 07:21:12;;;;;;;2.55;2.10;;;;;;;5.25;100.00;100700.34;5101404;28;20024;-68
2023/11/13 07:23:37;;;;;;;2.40;1.92;;;;;;;5.13;100.00;100702.53;5101771;28;20544;-68
2023/11/13 07:26:04;;;;;;;2.20;1.98;;;;;;;5.03;100.00;100674.31;5100061;28;20465;-67
2023/11/13 07:28:30;;;;;;;1.90;1.65;;;;;;;4.79;100.00;100694.63;5100001;28;20024;-67
2023/11/13 07:30:56;;;;;;;4.55;2.38;;;;;;;4.71;100.00;100702.63;5083961;28;20032;-67
2023/11/13 07:33:21;;;;;;;2.30;1.98;;;;;;;4.60;100.00;100706.44;5101786;28;20494;-67
2023/11/13 07:35:47;;;;;;;2.70;2.28;;;;;;;4.61;100.00;100702.78;5101825;28;20074;-67
2023/11/13 07:38:12;;;;;;;2.40;2.20;;;;;;;4.84;100.00;100707.50;5099358;28;20028;-67
2023/11/13 07:40:37;;;;;;;2.50;2.30;;;;;;;4.46;100.00;100699.88;5097313;28;20081;-66
2023/11/13 07:43:03;;;;;;;3.38;2.60;;;;;;;4.81;100.00;100707.81;5099457;28;20097;-67
2023/11/13 07:45:28;;;;;;;3.75;2.17;;;;;;;4.92;100.00;100715.47;5100349;28;20040;-67
2023/11/13 07:47:56;;;;;;;2.67;2.10;;;;;;;4.85;100.00;100711.81;5099870;28;20024;-67
2023/11/13 07:50:23;;;;;;;2.20;2.00;;;;;;;4.77;100.00;100693.13;5100138;28;20031;-67
2023/11/13 07:52:50;;;;;;;2.50;2.20;;;;;;;4.70;100.00;100715.13;5100189;28;20028;-67
2023/11/13 07:55:18;;;;;;;2.40;2.15;;;;;;;4.68;100.00;100693.13;5100075;28;20038;-67
2023/11/13 07:57:44;;;;;;;2.58;2.38;;;;;;;4.88;100.00;100706.97;5101611;28;20056;-67
2023/11/13 08:00:11;;;;;;;3.03;2.40;;;;;;;4.77;100.00;100703.78;5099993;28;20032;-67
2023/11/13 08:02:45;;;;;;;5.70;2.65;;;;;;;4.71;100.00;100702.63;5101871;28;20031;-67
2023/11/13 08:05:12;;;;;;;2.95;2.70;;;;;;;4.68;100.00;100698.44;5107571;28;20035;-68
2023/11/13 08:07:46;;;;;;;4.03;2.90;;;;;;;4.97;100.00;100715.84;5110904;28;20049;-67
2023/11/13 08:10:13;;;;;;;3.35;2.60;;;;;;;4.81;100.00;100695.31;5109673;28;20032;-67
2023/11/13 08:12:49;;;;;;;2.70;2.50;;;;;;;4.53;100.00;100684.06;5092070;28;20512;-67
2023/11/13 08:15:15;;;;;;;3.75;2.63;;;;;;;4.61;100.00;100704.59;5098957;28;20103;-67
2023/11/13 08:17:46;;;;;;;3.28;2.55;;;;;;;4.78;100.00;100702.81;5097546;28;20020;-67
2023/11/13 08:20:15;;;;;;;6.72;2.90;;;;;;;4.71;100.00;100708.78;5096182;28;20049;-67
2023/11/13 08:22:42;;;;;;;3.38;2.50;;;;;;;4.78;100.00;100705.47;5100232;28;20024;-67
2023/11/13 08:25:12;;;;;;;3.85;2.60;;;;;;;4.71;100.00;100707.97;5101161;28;20029;-67
2023/11/13 08:27:44;;;;;;;2.45;2.25;;;;;;;4.85;100.00;100703.81;5099087;28;20036;-67
2023/11/13 08:30:13;;;;;;;2.80;2.55;;;;;;;4.77;100.00;100706.44;5100097;28;20032;-67
2023/11/13 08:32:39;;;;;;;2.67;2.30;;;;;;;4.62;100.00;100717.75;5100550;28;20028;-67
2023/11/13 08:35:05;;;;;;;2.53;2.33;;;;;;;4.78;100.00;100708.97;5099871;28;20096;-67
2023/11/13 08:37:31;;;;;;;2.55;2.35;;;;;;;4.87;100.00;100717.81;5081462;28;20038;-68
2023/11/13 08:39:57;;;;;;;2.90;2.60;;;;;;;4.84;100.00;100723.47;5064538;28;20031;-67
2023/11/13 08:42:22;;;;;;;3.10;2.28;;;;;;;4.66;100.00;100708.44;5100361;28;20028;-67
2023/11/13 08:44:48;;;;;;;2.90;2.42;;;;;;;4.60;100.00;100717.09;5098735;28;20497;-67
2023/11/13 08:47:15;;;;;;;2.33;2.10;;;;;;;4.65;100.00;100709.44;5099509;28;20295;-67
2023/11/13 08:49:42;;;;;;;3.03;2.17;;;;;;;4.55;100.00;100708.75;5081903;28;20051;-67
2023/11/13 08:52:10;;;;;;;2.78;2.40;;;;;;;4.40;100.00;100681.03;5099167;28;20036;-67
2023/11/13 08:54:36;;;;;;;2.55;2.13;;;;;;;4.63;100.00;100710.59;5099998;28;20091;-67
2023/11/13 08:57:06;;;;;;;2.22;2.03;;;;;;;4.63;100.00;100714.09;5098863;28;20055;-67
2023/11/13 08:59:35;;;;;;;4.30;2.33;;;;;;;4.55;100.00;100719.41;5099722;28;20044;-67
2023/11/13 09:02:07;;;;;;;2.88;2.60;;;;;;;4.71;100.00;100716.78;5099532;28;20085;-67
2023/11/13 09:04:34;;;;;;;2.90;2.60;;;;;;;4.70;100.00;100691.13;5097347;28;20505;-67
2023/11/13 09:07:11;;;;;;;4.68;2.40;;;;;;;4.84;100.00;100713.66;5091259;28;20047;-68
2023/11/13 09:09:37;;;;;;;2.20;2.00;;;;;;;4.79;100.00;100696.47;5098462;28;20028;-67
2023/11/13 09:12:04;;;;;;;3.42;2.30;;;;;;;5.02;100.00;100707.34;5064365;28;20035;-67
2023/11/13 09:14:34;;;;;;;2.22;2.03;;;;;;;5.13;100.00;100702.53;5100189;28;20036;-67
2023/11/13 09:17:09;;;;;;;2.22;2.03;;;;;;;5.02;100.00;100702.81;5098891;28;20088;-67
2023/11/13 09:19:38;;;;;;;2.50;2.17;;;;;;;4.66;100.00;100704.94;5099889;28;20127;-67
2023/11/13 09:22:07;;;;;;;2.47;2.00;;;;;;;4.61;100.00;100681.44;5098755;28;20057;-67
2023/11/13 09:24:38;;;;;;;2.25;2.05;;;;;;;4.84;100.00;100694.16;5098980;28;20115;-67
2023/11/13 09:27:09;;;;;;;2.50;1.80;;;;;;;4.64;100.00;100697.13;5100312;28;20213;-67
2023/11/13 09:29:34;;;;;;;2.20;2.00;;;;;;;4.48;100.00;100702.41;5099698;28;20028;-68
2023/11/13 09:32:00;;;;;;;2.17;1.98;;;;;;;4.66;100.00;100692.44;5099892;28;20062;-67
2023/11/13 09:34:25;;;;;;;3.25;2.13;;;;;;;4.75;100.00;100689.81;5098345;28;20039;-67
2023/11/13 09:36:51;;;;;;;2.25;2.05;;;;;;;5.00;100.00;100677.31;5098330;28;20035;-67
2023/11/13 09:39:17;;;;;;;2.33;1.90;;;;;;;4.86;100.00;100674.31;5099736;28;20035;-67
2023/11/13 09:41:48;;;;;;;2.75;2.00;;;;;;;4.99;100.00;100681.00;5102362;28;20083;-67
2023/11/13 09:44:18;;;;;;;2.70;2.50;;;;;;;4.89;100.00;100663.31;5102058;28;20027;-67
2023/11/13 09:46:44;;;;;;;4.20;2.35;;;;;;;4.91;100.00;100681.81;5103416;28;20020;-67
2023/11/13 09:49:11;;;;;;;3.97;2.28;;;;;;;4.78;100.00;100684.16;5103716;28;20024;-67
2023/11/13 09:51:39;;;;;;;2.92;2.28;;;;;;;4.61;100.00;100684.13;5103667;28;20027;-67
2023/11/13 09:54:04;;;;;;;3.13;2.28;;;;;;;4.78;100.00;100678.81;5085649;28;20123;-67
2023/11/13 09:56:30;;;;;;;4.05;2.28;;;;;;;4.71;100.00;100682.13;5068892;28;20055;-67
2023/11/13 09:59:02;;;;;;;2.65;2.38;;;;;;;4.79;100.00;100681.31;5103473;28;20055;-67
2023/11/13 10:01:28;;;;;;;6.22;2.13;;;;;;;4.71;100.00;100671.47;5104315;28;20028;-67
2023/11/13 10:03:54;;;;;;;3.38;2.35;;;;;;;4.52;100.00;100677.09;5101686;28;20039;-67
2023/11/13 10:06:28;;;;;;;3.13;2.08;;;;;;;4.55;100.00;100667.94;5100342;28;20423;-67
2023/11/13 10:08:53;;;;;;;10.85;2.03;;;;;;;4.09;100.00;100632.84;5105492;28;20023;-68
2023/11/13 10:11:20;;;;;;;5.38;2.60;;;;;;;4.35;100.00;100656.75;5106406;28;20040;-67
2023/11/13 10:13:46;;;;;;;4.97;2.38;;;;;;;4.57;100.00;100658.78;5084459;28;20024;-67
2023/11/13 10:16:16;;;;;;;3.30;1.92;;;;;;;4.67;100.00;100654.16;5103778;28;20032;-68
2023/11/13 10:18:43;;;;;;;4.78;2.30;;;;;;;4.59;100.00;100631.97;5102133;28;20036;-67
2023/11/13 10:21:08;;;;;;;4.85;2.22;;;;;;;4.13;100.00;100602.22;5103162;28;20035;-67
2023/11/13 10:23:34;;;;;;;3.00;1.88;;;;;;;4.34;100.00;100621.28;5102189;28;20036;-67
2023/11/13 10:26:00;;;;;;;5.55;1.83;;;;;;;4.31;100.00;100629.59;5102272;28;20063;-67
2023/11/13 10:28:37;;;;;;;8.65;2.15;;;;;;;4.33;100.00;100630.25;5102440;28;20044;-67
2023/11/13 10:31:13;;;;;;;3.75;1.70;;;;;;;4.04;100.00;100617.38;5102802;28;20043;-67
2023/11/13 10:33:39;;;;;;;1.85;1.30;;;;;;;3.61;100.00;100618.31;5085659;28;20028;-67
2023/11/13 10:36:17;;;;;;;5.05;1.40;;;;;;;3.80;100.00;100614.59;5101809;28;20035;-67
2023/11/13 10:38:45;;;;;;;1.80;1.38;;;;;;;4.15;100.00;100617.06;5102157;28;20024;-67
2023/11/13 10:41:12;;;;;;;1.70;1.23;;;;;;;4.10;100.00;100614.03;5102323;28;20092;-67
2023/11/13 10:43:41;;;;;;;2.17;1.30;;;;;;;4.00;100.00;100624.81;5103036;28;20395;-67
2023/11/13 10:46:07;;;;;;;1.67;1.30;;;;;;;4.19;100.00;100614.91;5102604;28;20024;-67
2023/11/13 10:48:45;;;;;;;3.72;1.45;;;;;;;3.97;100.00;100626.97;5101245;28;20024;-67
2023/11/13 10:51:14;;;;;;;2.65;1.38;;;;;;;4.27;100.00;100619.41;5102216;28;20163;-67
2023/11/13 10:53:42;;;;;;;1.63;1.15;;;;;;;4.14;100.00;100618.06;5102582;28;20115;-67
2023/11/13 10:56:09;;;;;;;1.20;1.10;;;;;;;3.69;100.00;100624.53;5101978;28;20434;-67
2023/11/13 10:58:35;;;;;;;1.40;1.30;;;;;;;3.66;100.00;100608.06;5102512;28;20526;-67
2023/11/13 11:01:05;;;;;;;2.45;1.13;;;;;;;3.88;100.00;100614.66;5102392;28;20213;-67
2023/11/13 11:03:32;;;;;;;1.42;1.20;;;;;;;3.89;100.00;100613.63;5101448;28;20027;-67
2023/11/13 11:06:06;;;;;;;4.25;1.48;;;;;;;3.67;100.00;100618.53;5102091;28;20028;-67
2023/11/13 11:08:32;;;;;;;2.42;1.35;;;;;;;3.99;100.00;100611.69;5100917;28;20023;-67
2023/11/13 11:10:59;;;;;;;4.03;2.22;;;;;;;4.01;100.00;100604.38;5102430;28;20035;-67
2023/11/13 11:13:25;;;;;;;3.05;1.40;;;;;;;3.85;100.00;100586.50;5100560;28;20031;-67
2023/11/13 11:16:39;;;;;;;2.30;1.33;;;;;;;4.13;100.00;100599.56;5100326;28;20035;-67
2023/11/13 11:19:33;;;;;;;2.17;1.33;;;;;;;4.23;100.00;100593.09;5099452;28;20028;-67
2023/11/13 11:22:09;;;;;;;2.65;1.40;;;;;;;4.25;100.00;100595.63;5097498;28;20037;-67